Weather reports worldwide

Advertisment
Bolzano, Italy (16020): temperature & dewpoint: 20.05.2019 20:00:00 - 26.05.2019 20:00:00 (CEST)Bolzano, Italy (16020): wind speed: 20.05.2019 20:00:00 - 26.05.2019 20:00:00 (CEST)Bolzano, Italy (16020): wind direction: 20.05.2019 20:00:00 - 26.05.2019 20:00:00 (CEST)Bolzano, Italy (16020): reduced air pressure: 20.05.2019 20:00:00 - 26.05.2019 20:00:00 (CEST)Bolzano, Italy (16020): visibility: 20.05.2019 20:00:00 - 26.05.2019 20:00:00 (CEST)Bolzano, Italy (16020): precipitation: 20.05.2019 20:00:00 - 26.05.2019 20:00:00 (CEST)
Date & Time tt [°C] td [°C] ff [km/h] ff [kn] dd ppp [hPa] vv [km] rr [mm]
26.05.2019 20:00:00 21,0 14,0 5 3 SW - 10 -
26.05.2019 19:00:00 21,0 14,0 5 3 - - 10 -
26.05.2019 18:00:00 22,0 13,0 8 4 S - 10 -
26.05.2019 17:00:00 22,0 11,0 2 1 - - 10 -
26.05.2019 16:00:00 22,0 12,0 0 0 N - 10 -
26.05.2019 15:00:00 21,0 11,0 0 0 N - 10 -
26.05.2019 14:00:00 20,0 13,0 4 2 - - 10 -
26.05.2019 13:00:00 20,0 13,0 4 2 - - 10 -
26.05.2019 12:00:00 18,0 13,0 4 2 - - 10 -
26.05.2019 11:00:00 17,0 14,0 0 0 N - 10 -
26.05.2019 10:00:00 16,0 14,0 0 0 N - 10 -
26.05.2019 09:00:00 15,0 13,0 4 2 - - 10 -
26.05.2019 08:00:00 15,0 14,0 5 3 - - 10 -
26.05.2019 07:00:00 14,0 13,0 5 3 NW - 10 -
26.05.2019 06:00:00 - - - - - - - -
26.05.2019 05:00:00 - - - - - - - -
26.05.2019 04:00:00 - - - - - - - -
26.05.2019 03:00:00 - - - - - - - -
26.05.2019 02:00:00 - - - - - - - -
26.05.2019 01:00:00 - - - - - - - -
26.05.2019 00:00:00 - - - - - - - -
25.05.2019 23:00:00 15,0 15,0 0 0 N - 10 -
25.05.2019 22:00:00 15,0 14,0 13 7 N - 10 -
25.05.2019 21:00:00 16,0 14,0 13 7 N - 10 -
25.05.2019 20:00:00 19,0 13,0 5 3 WSW - 10 -
25.05.2019 19:00:00 21,0 13,0 0 0 N - 10 -
25.05.2019 18:00:00 22,0 14,0 5 3 SE - 10 -
25.05.2019 17:00:00 23,0 13,0 4 2 SSE - 10 -
25.05.2019 16:00:00 21,0 13,0 0 0 N - 10 -
25.05.2019 15:00:00 21,0 13,0 5 3 - - 10 -
25.05.2019 14:00:00 19,0 13,0 8 4 N - 10 -
25.05.2019 13:00:00 18,0 14,0 4 2 - - 10 -
25.05.2019 12:00:00 17,0 14,0 8 4 S - 10 -
25.05.2019 11:00:00 18,0 14,0 8 4 S - 10 -
25.05.2019 10:00:00 17,0 13,0 4 2 - - 10 -
25.05.2019 09:00:00 16,0 14,0 5 3 - - 10 -
25.05.2019 08:00:00 14,0 13,0 8 4 SSE - 9 -
25.05.2019 07:00:00 15,0 13,0 5 3 - - 10 -
25.05.2019 06:00:00 - - - - - - - -
25.05.2019 05:00:00 - - - - - - - -
25.05.2019 04:00:00 - - - - - - - -
25.05.2019 03:00:00 - - - - - - - -
25.05.2019 02:00:00 - - - - - - - -
25.05.2019 01:00:00 - - - - - - - -
25.05.2019 00:00:00 - - - - - - - -
24.05.2019 23:00:00 20,0 13,0 5 3 - - 10 -
24.05.2019 22:00:00 22,0 12,0 11 6 SSE - 10 -
24.05.2019 21:00:00 22,0 12,0 15 8 S - 10 -
24.05.2019 20:00:00 23,0 12,0 15 8 S - 10 -
24.05.2019 19:00:00 25,0 11,0 18 10 S - 10 -
24.05.2019 18:00:00 27,0 9,0 18 10 S - 10 -
24.05.2019 17:00:00 28,0 5,0 13 7 S - 10 -
24.05.2019 16:00:00 28,0 5,0 8 4 SSW - 10 -
24.05.2019 15:00:00 27,0 5,0 8 4 S - 10 -
24.05.2019 14:00:00 26,0 7,0 11 6 SSE - 10 -
24.05.2019 13:00:00 25,0 6,0 8 4 S - 10 -
24.05.2019 12:00:00 23,0 8,0 5 3 SSW - 10 -
24.05.2019 11:00:00 21,0 7,0 4 2 SSE - 10 -
24.05.2019 10:00:00 19,0 8,0 0 0 N - 10 -
24.05.2019 09:00:00 17,0 8,0 0 0 N - 10 -
24.05.2019 08:00:00 11,0 7,0 2 1 - - 10 -
24.05.2019 07:00:00 11,0 7,0 5 3 - - 10 -
24.05.2019 06:00:00 - - - - - - - -
24.05.2019 05:00:00 - - - - - - - -
24.05.2019 04:00:00 - - - - - - - -
24.05.2019 03:00:00 - - - - - - - -
24.05.2019 02:00:00 - - - - - - - -
24.05.2019 01:00:00 - - - - - - - -
24.05.2019 00:00:00 - - - - - - - -
23.05.2019 23:00:00 17,0 11,0 2 1 - - 10 -
23.05.2019 22:00:00 20,0 10,0 4 2 - - 10 -
23.05.2019 21:00:00 21,0 10,0 8 4 SSE - 10 -
23.05.2019 20:00:00 24,0 9,0 9 5 SE - 10 -
23.05.2019 19:00:00 24,0 7,0 9 5 S - 10 -
23.05.2019 18:00:00 27,0 5,0 11 6 S - 10 -
23.05.2019 17:00:00 27,0 5,0 9 5 SSW - 10 -
23.05.2019 16:00:00 28,0 5,0 8 4 - - 10 -
23.05.2019 15:00:00 26,0 5,0 4 2 - - 10 -
23.05.2019 14:00:00 25,0 5,0 4 2 WSW - 10 -
23.05.2019 13:00:00 23,0 4,0 2 1 S - 10 -
23.05.2019 12:00:00 21,0 7,0 0 0 N - 10 -
23.05.2019 11:00:00 20,0 9,0 4 2 S - 10 -
23.05.2019 10:00:00 16,0 7,0 0 0 N - 10 -
23.05.2019 09:00:00 15,0 8,0 0 0 N - 10 -
23.05.2019 08:00:00 11,9 8,1 0 0 N 1018,3 10 0,0
23.05.2019 07:00:00 9,0 7,0 0 0 N - 10 -
23.05.2019 06:00:00 - - - - - - - -
23.05.2019 05:00:00 8,5 6,7 4 2 NW 1018,2 - -
23.05.2019 04:00:00 - - - - - - - -
23.05.2019 03:00:00 - - - - - - - -
23.05.2019 02:00:00 10,7 7,5 4 2 WNW 1017,4 - 0,0
23.05.2019 01:00:00 - - - - - - - -
23.05.2019 00:00:00 - - - - - - - -
22.05.2019 23:00:00 15,9 6,9 9 5 NW 1015,8 10 -
22.05.2019 22:00:00 20,0 4,0 15 8 N - 10 -
22.05.2019 21:00:00 22,0 5,0 15 8 NNW - 10 -
22.05.2019 20:00:00 22,5 3,4 18 10 N 1012,1 10 0,0
22.05.2019 19:00:00 24,0 4,0 15 8 N - 10 -
22.05.2019 18:00:00 24,0 5,0 16 9 NNE - 10 -
22.05.2019 17:00:00 24,4 10,8 8 4 S 1010,8 10 -
22.05.2019 16:00:00 24,0 11,0 0 0 N - 10 -
22.05.2019 15:00:00 24,0 9,0 8 4 SW - 10 -
22.05.2019 14:00:00 23,2 10,4 0 0 N 1011,6 10 0,0
22.05.2019 13:00:00 21,0 10,0 4 2 SSE - 10 -
22.05.2019 12:00:00 19,0 10,0 8 4 SW - 10 -
22.05.2019 11:00:00 17,2 9,6 4 2 - 1014,1 10 -
22.05.2019 10:00:00 15,0 10,0 4 2 S - 10 -
22.05.2019 09:00:00 14,0 9,0 4 2 WSW - 10 -
22.05.2019 08:00:00 12,6 9,1 5 3 - 1015,2 10 0,0
22.05.2019 07:00:00 12,0 10,0 5 3 NNE - 10 -
22.05.2019 06:00:00 - - - - - - - -
22.05.2019 05:00:00 9,8 9,0 5 3 N 1014,7 - -
22.05.2019 04:00:00 - - - - - - - -
22.05.2019 03:00:00 - - - - - - - -
22.05.2019 02:00:00 11,1 10,6 2 1 N 1013,6 - 0,0
22.05.2019 01:00:00 - - - - - - - -
22.05.2019 00:00:00 - - - - - - - -
21.05.2019 23:00:00 13,2 12,3 0 0 N 1012,8 10 -
21.05.2019 22:00:00 14,0 12,0 4 2 - - 10 -
21.05.2019 21:00:00 16,0 12,0 8 4 NNW - 10 -
21.05.2019 20:00:00 16,4 12,2 4 2 - 1010,4 10 0,0
21.05.2019 19:00:00 17,0 12,0 4 2 - - 10 -
21.05.2019 18:00:00 17,0 12,0 5 3 WNW - 10 -
21.05.2019 17:00:00 17,0 11,8 4 2 - 1009,1 10 -
21.05.2019 16:00:00 17,0 11,0 0 0 N - 10 -
21.05.2019 15:00:00 17,0 10,0 2 1 - - 10 -
21.05.2019 14:00:00 16,3 10,4 4 2 S 1008,9 10 0,0
21.05.2019 13:00:00 16,0 11,0 4 2 - - 10 -
21.05.2019 12:00:00 16,0 10,0 0 0 N - 10 -
21.05.2019 11:00:00 15,5 10,1 4 2 - 1008,6 10 -
21.05.2019 10:00:00 15,0 10,0 2 1 - - 10 -
21.05.2019 09:00:00 14,0 11,0 4 2 - - 10 -
21.05.2019 08:00:00 12,3 10,3 4 2 - 1008,5 10 -
21.05.2019 07:00:00 11,0 10,0 0 0 N - 10 -
21.05.2019 06:00:00 - - - - - - - -
21.05.2019 05:00:00 11,5 10,7 2 1 WSW 1007,7 - -
21.05.2019 04:00:00 - - - - - - - -
21.05.2019 03:00:00 - - - - - - - -
21.05.2019 02:00:00 11,8 11,4 2 1 S 1007,5 - -
21.05.2019 01:00:00 - - - - - - - -
21.05.2019 00:00:00 - - - - - - - -
20.05.2019 23:00:00 11,9 11,4 0 0 N 1007,4 7 -
20.05.2019 22:00:00 12,0 11,0 5 3 NNW - 8 -
20.05.2019 21:00:00 12,0 11,0 4 2 NNW - 7 -
20.05.2019 20:00:00 12,5 11,3 0 0 N 1006,3 8 -

tt = temperature
td = dewpoint
ff = wind speed
dd = wind direction
ppp = reduced air pressure
vv = visibility
rr = precipitation

Next stations